Tropical Cyclones
[Index]
Season 2019-2020 Tropical Cyclone VICKY Track Map
Season 2019-2020 Summaries (Operational Data): [AU] [SIO] [SPAC] [SH]
<<- Previous TC | 2019-2020 Season | Next TC ->>

click for intensity scale information  Lat/long Grid: Show Hide

 Date Labels: Show Hide

Operational Tropical Cyclone Data

Name: VICKY
Number: 2017

19 Feb 2020 06:00 UTC to 24 Feb 2020 00:00 UTC

    date/time    lat    long     hPa   cat  kts
2020-02-19 06   12.8   175.8W   1010         15          
2020-02-19 12   13.0   175.3W   1010         15          
2020-02-19 18   13.1   174.9W   1007         20          
2020-02-20 00   13.2   174.4W   1004         25          
2020-02-20 06   13.5   173.2W   1003         25          
2020-02-20 12   13.7   172.4W   1001         30          
2020-02-20 18   14.3   171.5W    997    1    45          
2020-02-21 00   14.8   170.8W    996    1    45          
2020-02-21 06   15.7   170.7W   1002    1    40          
2020-02-21 12   16.4   170.3W   1002    1    40          
2020-02-21 18   17.3   169.7W   1000    1    35          
2020-02-22 00   19.5   168.7W   1004    1    35          
2020-02-22 06   20.2   168.8W   1005         30          
2020-02-22 12   20.9   168.8W   1005         25          
2020-02-22 18   21.6   168.5W   1005         25          
2020-02-23 00   22.5   168.5W   1005         25          
2020-02-23 06   22.7   169.0W   1004         25          
2020-02-23 12   22.8   169.5W   1005         20          
2020-02-23 18   23.0   169.6W   1007         20          
2020-02-24 00   23.4   170.7W   1007         20          
Winds are 10-min average.

Tropical cyclone tracks developed by Michael Bath using operational warnings and advisories and Google Maps.


Document: tropical_cyclone_vicky.htm
Updated: 17 June 2020
[Australian Severe Weather index] [Copyright Notice] [Email Contacts] [Search This Site] [Privacy Policy]


Main Index Home Page Stock Weather Photos Extreme Storms Discussion Storm News and Storm Chasing Reports Tropical Cyclones / Hurricanes / Typhoons Weather Data and Links Wild Fires / Bushfires Weather Observation Techniques Weather Picture Catalogue Tornado Pictures and Reports Stock Video Footage and DVDs for sale